Time;durP1;ratioP1;P1;durP2;ratioP2;P2;SDS_P1;SDS_P2;PMS_P1;PMS_P2;Temp;Humidity;BMP_temperature;BMP_pressure;BME280_temperature;BME280_humidity;BME280_pressure;Samples;Min_cycle;Max_cycle;Signal;HPM_P1;HPM_P2
2021/05/29 00:03:30;;;;;;;11.02;7.35;;;;;;;10.13;73.20;101272.47;8738841;33;20637;-72
2021/05/29 00:08:34;;;;;;;10.05;7.18;;;;;;;10.11;73.17;101277.09;8738522;33;20182;-72
2021/05/29 00:13:38;;;;;;;10.93;7.85;;;;;;;10.09;73.40;101287.06;8738374;33;20281;-72
2021/05/29 00:18:40;;;;;;;10.88;8.23;;;;;;;10.14;73.09;101287.63;8738333;33;20275;-72
2021/05/29 00:23:44;;;;;;;12.88;7.97;;;;;;;10.12;73.10;101278.78;8738504;33;20166;-72
2021/05/29 00:28:47;;;;;;;11.75;8.20;;;;;;;10.12;73.10;101270.75;8738109;33;20250;-72
2021/05/29 00:33:50;;;;;;;13.98;8.65;;;;;;;10.08;72.97;101266.53;8738271;33;20194;-72
2021/05/29 00:38:53;;;;;;;15.82;9.43;;;;;;;9.98;73.03;101276.16;8737273;33;20269;-72
2021/05/29 00:43:56;;;;;;;14.55;10.35;;;;;;;9.87;73.11;101275.03;8736794;33;20147;-72
2021/05/29 00:48:58;;;;;;;18.70;11.05;;;;;;;9.84;72.97;101280.53;8737007;33;20268;-72
2021/05/29 00:54:02;;;;;;;17.85;11.05;;;;;;;9.85;73.11;101290.34;8737030;33;20258;-72
2021/05/29 00:59:06;;;;;;;20.50;11.25;;;;;;;9.75;73.23;101288.34;8737098;33;20769;-73
2021/05/29 01:04:08;;;;;;;19.83;11.15;;;;;;;9.71;73.44;101296.59;8719201;33;20195;-72
2021/05/29 01:09:12;;;;;;;19.85;12.13;;;;;;;9.78;73.68;101302.41;8717531;33;20152;-72
2021/05/29 01:14:14;;;;;;;20.83;11.35;;;;;;;9.87;73.31;101296.50;8716872;33;20692;-72
2021/05/29 01:19:17;;;;;;;19.45;11.68;;;;;;;9.97;73.19;101293.22;8717333;33;20270;-72
2021/05/29 01:24:23;;;;;;;20.60;12.20;;;;;;;10.06;73.04;101287.25;8716086;33;21386;-72
2021/05/29 01:29:26;;;;;;;25.05;11.70;;;;;;;10.05;72.78;101280.16;8715414;33;20194;-72
2021/05/29 01:34:33;;;;;;;20.80;12.15;;;;;;;10.07;72.76;101297.91;8715829;33;20184;-72
2021/05/29 01:39:36;;;;;;;19.45;11.07;;;;;;;10.09;72.70;101287.06;8716011;33;20249;-72
2021/05/29 01:44:39;;;;;;;25.40;12.70;;;;;;;9.98;72.83;101285.06;8716483;33;20175;-72
2021/05/29 01:49:42;;;;;;;22.05;11.05;;;;;;;9.94;72.71;101292.44;8716030;33;20644;-72
2021/05/29 01:54:45;;;;;;;22.35;12.13;;;;;;;9.95;72.63;101306.72;8715630;33;20264;-72
2021/05/29 01:59:51;;;;;;;22.63;12.07;;;;;;;9.89;72.53;101299.06;8715494;33;20187;-72
2021/05/29 02:04:53;;;;;;;24.48;12.63;;;;;;;9.94;72.53;101302.34;8715949;33;20665;-72
2021/05/29 02:09:57;;;;;;;25.98;13.18;;;;;;;9.92;72.05;101293.50;8691154;33;20450;-72
2021/05/29 02:14:59;;;;;;;22.48;11.80;;;;;;;10.03;72.14;101299.06;8543700;33;20120;-73
2021/05/29 02:20:05;;;;;;;24.20;13.10;;;;;;;10.03;71.96;101300.88;8551510;33;20435;-73
2021/05/29 02:25:11;;;;;;;24.00;12.38;;;;;;;9.90;72.28;101299.00;8536234;33;20543;-72
2021/05/29 02:30:16;;;;;;;22.63;11.80;;;;;;;9.48;73.69;101305.19;8536409;33;22303;-73
2021/05/29 02:35:19;;;;;;;22.33;11.85;;;;;;;9.64;73.79;101299.75;8534576;33;20211;-72
2021/05/29 02:40:22;;;;;;;24.10;13.95;;;;;;;9.65;73.72;101294.28;8535296;33;20189;-73
2021/05/29 02:45:26;;;;;;;22.70;12.02;;;;;;;9.55;73.87;101301.19;8535414;33;20421;-73
2021/05/29 02:50:28;;;;;;;21.45;11.15;;;;;;;9.53;74.11;101297.72;8535704;33;21903;-73
2021/05/29 02:55:32;;;;;;;23.42;12.48;;;;;;;9.60;73.51;101301.75;8531561;33;20411;-73
2021/05/29 03:00:38;;;;;;;22.55;12.40;;;;;;;9.67;73.52;101294.19;8531924;33;20445;-73
2021/05/29 03:05:44;;;;;;;24.58;13.38;;;;;;;9.60;73.73;101293.72;8531954;33;20985;-73
2021/05/29 03:10:50;;;;;;;26.98;12.93;;;;;;;9.64;73.75;101300.59;8533537;33;20233;-73
2021/05/29 03:15:53;;;;;;;25.08;12.10;;;;;;;9.72;73.66;101300.13;8538035;33;20984;-73
2021/05/29 03:20:55;;;;;;;24.50;12.55;;;;;;;9.78;73.58;101302.41;8539912;33;20243;-73
2021/05/29 03:25:59;;;;;;;22.77;12.55;;;;;;;9.91;73.40;101307.91;8536913;33;20187;-73
2021/05/29 03:31:02;;;;;;;22.20;12.85;;;;;;;9.91;72.99;101324.88;8531747;33;20417;-73
2021/05/29 03:36:05;;;;;;;25.30;12.85;;;;;;;10.06;73.05;101322.16;8528803;33;21122;-73
2021/05/29 03:41:10;;;;;;;23.38;12.52;;;;;;;10.07;72.55;101324.75;8527984;33;20460;-73
2021/05/29 03:46:12;;;;;;;19.73;11.57;;;;;;;10.10;72.52;101324.56;8528303;33;20624;-73
2021/05/29 03:51:15;;;;;;;24.92;12.68;;;;;;;10.16;72.42;101325.97;8528907;33;20427;-73
2021/05/29 03:56:19;;;;;;;22.77;11.77;;;;;;;10.30;72.20;101330.47;8526093;33;20431;-73
2021/05/29 04:01:22;;;;;;;25.95;13.07;;;;;;;10.37;71.91;101338.03;8526315;33;20795;-73
2021/05/29 04:06:24;;;;;;;25.88;13.00;;;;;;;10.44;71.86;101341.16;8528247;33;20249;-73
2021/05/29 04:11:28;;;;;;;24.00;12.70;;;;;;;10.49;71.64;101341.72;8532061;33;20590;-73
2021/05/29 04:16:31;;;;;;;25.95;13.05;;;;;;;10.52;71.53;101346.03;8534405;33;20462;-73
2021/05/29 04:21:34;;;;;;;22.13;11.88;;;;;;;10.62;70.96;101349.84;8539292;33;20507;-73
2021/05/29 04:26:37;;;;;;;23.67;13.15;;;;;;;10.41;71.19;101354.78;8540437;33;20803;-73
2021/05/29 04:31:40;;;;;;;27.42;13.65;;;;;;;10.58;71.46;101349.16;8539764;33;20415;-73
2021/05/29 04:36:43;;;;;;;27.52;12.80;;;;;;;10.74;70.59;101345.47;8538720;33;20411;-72
2021/05/29 04:41:46;;;;;;;26.42;13.05;;;;;;;10.89;70.41;101341.78;8539160;33;20640;-72
2021/05/29 04:46:51;;;;;;;22.55;11.98;;;;;;;11.05;69.99;101355.91;8537828;33;20426;-72
2021/05/29 04:51:54;;;;;;;19.70;11.38;;;;;;;11.09;68.85;101348.47;8535052;33;20329;-72
2021/05/29 04:56:58;;;;;;;23.45;11.80;;;;;;;11.20;68.68;101345.94;8532678;33;20529;-72
2021/05/29 05:02:06;;;;;;;22.05;11.68;;;;;;;11.36;68.37;101358.38;8531470;33;20162;-72
2021/05/29 05:07:08;;;;;;;22.65;12.20;;;;;;;11.48;67.78;101344.91;8530956;33;20168;-72
2021/05/29 05:12:12;;;;;;;21.00;11.20;;;;;;;11.52;67.00;101352.75;8532792;33;20552;-72
2021/05/29 05:17:15;;;;;;;21.45;12.65;;;;;;;11.60;66.57;101356.66;8536608;33;20500;-72
2021/05/29 05:22:18;;;;;;;21.55;12.35;;;;;;;11.71;66.39;101363.94;8535074;33;20465;-72
2021/05/29 05:27:21;;;;;;;22.27;11.18;;;;;;;11.73;66.10;101362.88;8531275;33;20147;-73
2021/05/29 05:32:24;;;;;;;22.85;11.63;;;;;;;11.79;66.67;101372.34;8536826;33;20427;-73
2021/05/29 05:37:27;;;;;;;21.45;12.48;;;;;;;11.84;66.67;101378.28;8539452;33;20515;-72
2021/05/29 05:42:30;;;;;;;21.50;11.57;;;;;;;11.95;66.60;101372.13;8541196;33;22118;-72
2021/05/29 05:47:33;;;;;;;22.48;11.27;;;;;;;11.88;65.77;101360.94;8536968;33;20567;-72
2021/05/29 05:52:36;;;;;;;19.70;10.88;;;;;;;12.05;65.20;101365.13;8540560;33;20168;-73
2021/05/29 05:57:41;;;;;;;18.63;10.43;;;;;;;12.06;64.33;101371.34;8538867;33;20167;-72
2021/05/29 06:02:46;;;;;;;24.55;11.48;;;;;;;11.98;64.47;101376.44;8545490;33;20187;-72
2021/05/29 06:07:49;;;;;;;19.90;9.75;;;;;;;11.87;64.34;101382.56;8546425;33;20393;-73
2021/05/29 06:12:54;;;;;;;19.02;9.93;;;;;;;11.67;65.29;101392.06;8546486;33;20840;-72
2021/05/29 06:18:03;;;;;;;18.38;9.52;;;;;;;11.53;65.25;101402.94;8554157;33;20247;-72
2021/05/29 06:23:06;;;;;;;14.77;7.45;;;;;;;11.56;65.52;101406.25;8559742;33;20557;-72
2021/05/29 06:28:09;;;;;;;17.38;9.55;;;;;;;11.61;65.14;101403.25;8551883;33;20233;-72
2021/05/29 06:33:12;;;;;;;13.05;7.63;;;;;;;11.48;64.35;101414.00;8552068;33;20416;-72
2021/05/29 06:38:15;;;;;;;15.38;9.20;;;;;;;11.58;64.40;101409.72;8562632;33;20540;-72
2021/05/29 06:43:18;;;;;;;17.05;9.55;;;;;;;11.47;63.61;101415.84;8560662;33;21800;-72
2021/05/29 06:48:21;;;;;;;18.17;9.30;;;;;;;11.51;63.69;101424.56;8556751;33;20410;-73
2021/05/29 06:53:28;;;;;;;17.23;9.90;;;;;;;11.47;63.73;101418.53;8560610;33;20414;-72
2021/05/29 06:58:43;;;;;;;18.17;10.02;;;;;;;11.65;63.72;101418.22;8555459;33;20255;-72
2021/05/29 07:03:46;;;;;;;19.42;10.55;;;;;;;11.72;63.47;101420.38;8561714;33;20183;-72
2021/05/29 07:08:49;;;;;;;19.48;10.65;;;;;;;11.63;63.42;101433.63;8565094;33;20405;-72
2021/05/29 07:13:53;;;;;;;21.33;11.20;;;;;;;11.58;63.22;101444.69;8555665;33;20976;-72
2021/05/29 07:19:13;;;;;;;24.33;10.77;;;;;;;11.69;63.44;101450.22;8559797;33;20629;-73
2021/05/29 07:24:18;;;;;;;20.05;10.65;;;;;;;11.80;62.72;101454.00;8560062;33;20445;-72
2021/05/29 07:29:21;;;;;;;18.05;10.35;;;;;;;11.78;62.08;101454.09;8562975;33;20179;-72
2021/05/29 07:34:25;;;;;;;19.40;10.40;;;;;;;11.84;61.84;101458.19;8564691;33;20415;-72
2021/05/29 07:39:27;;;;;;;16.17;9.48;;;;;;;11.94;61.92;101452.03;8565102;33;22122;-73
2021/05/29 07:44:31;;;;;;;18.52;10.05;;;;;;;11.97;61.88;101460.88;8565574;33;20946;-72
2021/05/29 07:49:33;;;;;;;17.33;10.15;;;;;;;12.04;62.02;101456.78;8568634;33;20192;-73
2021/05/29 07:54:45;;;;;;;17.95;9.85;;;;;;;12.12;61.99;101457.09;8565971;33;20770;-73
2021/05/29 07:59:49;;;;;;;18.40;10.27;;;;;;;12.13;61.26;101464.22;8568312;33;20556;-72
2021/05/29 08:04:52;;;;;;;17.33;9.07;;;;;;;12.14;61.31;101472.19;8571003;33;20414;-71
2021/05/29 08:09:55;;;;;;;17.08;9.25;;;;;;;12.14;61.22;101466.81;8571096;33;20301;-71
2021/05/29 08:14:59;;;;;;;16.38;9.90;;;;;;;12.24;60.69;101468.88;8574746;32;20570;-70
2021/05/29 08:20:03;;;;;;;15.88;9.00;;;;;;;12.33;60.39;101474.47;8578324;32;20572;-70
2021/05/29 08:25:08;;;;;;;15.65;8.98;;;;;;;12.47;60.40;101483.41;8579773;33;20461;-70
2021/05/29 08:30:13;;;;;;;15.63;9.95;;;;;;;12.34;59.46;101487.00;8576622;33;20630;-71
2021/05/29 08:35:16;;;;;;;19.25;9.95;;;;;;;12.43;60.00;101485.47;8576323;32;20228;-71
2021/05/29 08:40:21;;;;;;;16.50;9.15;;;;;;;12.42;60.08;101499.03;8578700;32;20525;-71
2021/05/29 08:45:25;;;;;;;16.48;10.00;;;;;;;12.30;60.27;101500.78;8578872;32;20316;-71
2021/05/29 08:50:28;;;;;;;15.20;9.65;;;;;;;12.48;59.89;101503.97;8571152;32;20186;-71
2021/05/29 08:55:31;;;;;;;19.98;10.55;;;;;;;12.59;58.65;101507.66;8569650;32;20164;-71
2021/05/29 09:00:35;;;;;;;17.52;9.45;;;;;;;12.63;57.81;101502.91;8569365;32;20421;-71
2021/05/29 09:05:43;;;;;;;17.50;9.60;;;;;;;12.26;58.80;101510.00;8568047;32;20453;-70
2021/05/29 09:10:50;;;;;;;17.63;9.43;;;;;;;12.84;58.09;101503.19;8553164;32;20580;-71
2021/05/29 09:15:55;;;;;;;14.38;8.80;;;;;;;13.28;56.97;101516.06;8551059;32;20179;-71
2021/05/29 09:21:27;;;;;;;16.40;9.55;;;;;;;12.75;55.24;101506.53;8582636;32;20509;-71
2021/05/29 09:26:48;;;;;;;16.92;9.75;;;;;;;13.42;56.75;101517.78;8561065;33;21975;-71
2021/05/29 09:31:56;;;;;;;17.35;10.18;;;;;;;13.61;54.92;101508.28;8565973;32;20408;-71
2021/05/29 09:37:04;;;;;;;19.88;10.45;;;;;;;13.80;53.87;101519.41;8561477;33;20432;-71
2021/05/29 09:42:09;;;;;;;18.13;10.85;;;;;;;14.29;53.47;101522.81;8562278;33;20153;-71
2021/05/29 09:47:15;;;;;;;18.80;9.82;;;;;;;13.96;52.42;101519.09;8560785;33;20711;-72
2021/05/29 09:52:24;;;;;;;18.43;10.00;;;;;;;12.57;55.66;101525.75;8546945;33;20407;-72
2021/05/29 09:57:27;;;;;;;16.02;9.07;;;;;;;13.48;54.72;101520.00;8544696;33;20183;-71
2021/05/29 10:02:31;;;;;;;16.90;9.50;;;;;;;14.45;52.65;101517.94;8546278;33;20413;-71
2021/05/29 10:07:41;;;;;;;16.13;8.65;;;;;;;14.70;51.05;101530.38;8545526;32;20507;-71
2021/05/29 10:12:43;;;;;;;13.35;8.50;;;;;;;14.81;50.59;101524.97;8581049;33;20239;-72
2021/05/29 10:17:48;;;;;;;13.85;8.70;;;;;;;14.68;51.49;101529.63;8544073;33;20417;-71
2021/05/29 10:22:51;;;;;;;13.95;9.07;;;;;;;14.36;51.29;101535.72;8552934;33;21097;-71
2021/05/29 10:27:56;;;;;;;15.07;10.52;;;;;;;14.21;51.80;101546.91;8556068;33;22107;-72
2021/05/29 10:33:15;;;;;;;16.85;8.90;;;;;;;14.15;52.79;101549.09;8507246;33;20427;-71
2021/05/29 10:38:22;;;;;;;14.07;8.52;;;;;;;13.36;53.51;101549.75;8507114;33;21458;-71
2021/05/29 10:43:32;;;;;;;14.00;8.07;;;;;;;13.17;55.54;101552.94;8505992;33;20148;-71
2021/05/29 10:48:50;;;;;;;14.60;8.18;;;;;;;13.78;54.07;101544.81;8547732;33;20510;-71
2021/05/29 10:53:56;;;;;;;14.52;7.93;;;;;;;14.15;53.32;101542.81;8491838;33;20137;-71
2021/05/29 10:59:09;;;;;;;15.98;8.18;;;;;;;14.08;52.93;101533.47;8647157;33;20145;-71
2021/05/29 11:04:22;;;;;;;11.80;7.82;;;;;;;14.42;53.24;101537.09;8659414;32;20185;-70
2021/05/29 11:09:56;;;;;;;16.10;9.18;;;;;;;14.71;51.95;101545.63;8661154;32;20567;-71
2021/05/29 11:14:59;;;;;;;14.48;8.07;;;;;;;14.93;52.74;101543.88;8661739;33;20177;-71
2021/05/29 11:20:14;;;;;;;15.30;8.88;;;;;;;14.77;52.59;101546.97;8661453;32;20176;-71
2021/05/29 11:25:20;;;;;;;13.27;7.93;;;;;;;14.95;52.03;101542.78;8669888;32;20220;-72
2021/05/29 11:30:31;;;;;;;13.75;8.25;;;;;;;15.25;50.67;101539.41;8674448;32;21755;-70
2021/05/29 11:35:37;;;;;;;12.77;7.60;;;;;;;15.46;50.68;101542.19;8616428;33;20455;-71
2021/05/29 11:40:52;;;;;;;13.70;8.15;;;;;;;15.56;50.49;101544.13;8618990;33;20612;-71
2021/05/29 11:45:58;;;;;;;12.80;8.30;;;;;;;15.63;49.51;101542.59;8615883;33;20266;-70
2021/05/29 11:51:10;;;;;;;11.38;7.60;;;;;;;15.70;50.12;101541.13;8617822;33;20144;-71
2021/05/29 11:56:16;;;;;;;11.63;7.65;;;;;;;15.98;48.62;101541.47;8616679;33;20521;-70
2021/05/29 12:01:22;;;;;;;15.07;8.57;;;;;;;15.90;49.82;101542.13;8615440;33;21938;-70
2021/05/29 12:06:45;;;;;;;10.77;7.47;;;;;;;16.33;48.50;101542.00;8603958;33;21134;-71
2021/05/29 12:11:52;;;;;;;12.48;7.43;;;;;;;16.40;48.17;101542.34;8600147;33;20366;-71
2021/05/29 12:16:58;;;;;;;13.63;7.78;;;;;;;15.72;48.07;101544.56;8595188;33;20191;-71
2021/05/29 12:22:06;;;;;;;15.35;8.52;;;;;;;15.92;49.30;101542.84;8595227;33;20421;-70
2021/05/29 12:27:11;;;;;;;12.55;7.80;;;;;;;16.62;46.29;101540.44;8595648;33;20461;-71
2021/05/29 12:32:29;;;;;;;14.30;8.55;;;;;;;17.03;47.03;101547.59;8591650;33;20403;-71
2021/05/29 12:37:50;;;;;;;13.07;7.32;;;;;;;16.61;47.53;101546.88;8594793;33;20499;-70
2021/05/29 12:42:54;;;;;;;11.85;7.28;;;;;;;16.87;46.98;101540.00;8595181;33;20368;-73
2021/05/29 12:47:59;;;;;;;11.57;7.80;;;;;;;17.15;46.07;101529.38;8594254;33;20335;-70
2021/05/29 12:53:11;;;;;;;11.13;8.13;;;;;;;18.46;42.32;101526.19;8594808;33;20668;-71
2021/05/29 12:58:15;;;;;;;13.63;8.73;;;;;;;19.53;41.98;101523.75;8600018;33;20509;-71
2021/05/29 13:08:55;;;;;;;12.27;7.80;;;;;;;19.78;40.43;101524.84;8600038;33;20154;-72
2021/05/29 13:14:03;;;;;;;13.23;8.18;;;;;;;18.35;43.09;101528.06;8604507;33;20232;-71
2021/05/29 13:19:06;;;;;;;12.38;8.43;;;;;;;18.40;43.51;101527.59;8599228;33;20182;-71
2021/05/29 13:24:09;;;;;;;11.43;8.57;;;;;;;19.01;42.38;101531.69;8574882;33;20230;-71
2021/05/29 13:29:17;;;;;;;11.95;7.90;;;;;;;19.28;41.43;101535.38;8602159;33;20147;-71
2021/05/29 13:34:19;;;;;;;14.38;8.45;;;;;;;17.60;44.52;101531.56;8601370;33;20663;-72
2021/05/29 13:39:23;;;;;;;11.75;8.35;;;;;;;18.40;43.52;101533.03;8600198;33;20454;-71
2021/05/29 13:44:26;;;;;;;11.35;8.00;;;;;;;18.93;42.07;101537.03;8603683;33;20491;-71
2021/05/29 13:49:29;;;;;;;12.73;7.85;;;;;;;19.84;41.70;101526.09;8603112;33;20425;-71
2021/05/29 13:54:33;;;;;;;12.07;8.13;;;;;;;20.20;40.80;101534.19;8600643;33;20265;-72
2021/05/29 13:59:37;;;;;;;13.13;8.13;;;;;;;22.83;36.23;101528.19;8658816;32;20423;-71
2021/05/29 14:04:40;;;;;;;11.70;8.35;;;;;;;22.89;34.76;101519.25;8637199;32;20461;-72
2021/05/29 14:09:43;;;;;;;12.85;7.82;;;;;;;23.27;34.31;101530.41;8656100;32;20488;-72
2021/05/29 14:15:20;;;;;;;9.07;7.47;;;;;;;21.50;37.26;101536.66;8660822;32;20518;-72
2021/05/29 14:20:22;;;;;;;10.85;7.93;;;;;;;21.31;37.81;101537.84;8652874;32;20439;-71
2021/05/29 14:25:26;;;;;;;11.75;8.43;;;;;;;21.52;36.81;101520.97;8651440;32;20421;-71
2021/05/29 14:30:29;;;;;;;10.40;8.23;;;;;;;20.15;40.09;101523.75;8620291;33;20300;-71
2021/05/29 14:35:33;;;;;;;9.63;7.90;;;;;;;19.64;40.71;101526.25;8593402;33;20567;-71
2021/05/29 14:40:36;;;;;;;15.02;8.82;;;;;;;18.83;42.38;101523.47;8592914;33;20479;-71
2021/05/29 14:45:39;;;;;;;14.52;9.40;;;;;;;20.31;40.64;101523.03;8591696;33;20449;-71
2021/05/29 14:50:49;;;;;;;11.88;8.35;;;;;;;20.09;40.71;101519.78;8590387;33;20936;-71
2021/05/29 14:55:53;;;;;;;13.35;9.18;;;;;;;20.01;39.61;101505.25;8580575;33;20150;-71
2021/05/29 15:00:56;;;;;;;12.30;9.38;;;;;;;22.03;37.36;101508.00;8603645;33;20442;-71
2021/05/29 15:05:59;;;;;;;12.15;8.60;;;;;;;23.66;34.84;101506.44;8610694;33;20234;-70
2021/05/29 15:11:04;;;;;;;12.52;9.75;;;;;;;23.51;34.42;101505.56;8619000;33;20187;-71
2021/05/29 15:16:07;;;;;;;10.57;7.85;;;;;;;23.58;33.71;101501.03;8612763;33;20190;-71
2021/05/29 15:21:12;;;;;;;9.25;7.70;;;;;;;23.78;33.27;101500.56;8603749;33;20449;-71
2021/05/29 15:26:24;;;;;;;12.50;8.32;;;;;;;24.04;33.63;101500.16;8554504;33;20415;-71
2021/05/29 15:31:27;;;;;;;11.15;8.20;;;;;;;23.86;33.43;101509.59;8537862;33;20924;-71
2021/05/29 15:36:30;;;;;;;12.60;9.05;;;;;;;22.86;35.17;101504.03;8501377;33;20441;-71
2021/05/29 15:41:35;;;;;;;12.52;8.55;;;;;;;22.46;34.92;101505.03;8574906;33;20445;-71
2021/05/29 15:46:39;;;;;;;13.52;8.50;;;;;;;22.64;35.00;101508.41;8602717;33;20400;-73
2021/05/29 15:51:41;;;;;;;11.77;8.40;;;;;;;23.97;33.54;101501.94;8576451;33;20151;-71
2021/05/29 15:56:45;;;;;;;11.98;9.18;;;;;;;20.54;38.48;101515.16;8604104;33;20395;-71
2021/05/29 16:01:47;;;;;;;10.75;8.02;;;;;;;22.88;35.53;101503.88;8636946;33;20183;-71
2021/05/29 16:06:50;;;;;;;9.88;8.02;;;;;;;24.14;32.71;101499.91;8638557;33;21843;-71
2021/05/29 16:11:54;;;;;;;11.88;7.30;;;;;;;25.17;31.97;101505.34;8620597;33;20408;-71
2021/05/29 16:16:57;;;;;;;11.65;8.18;;;;;;;25.57;30.16;101491.19;8615908;33;21047;-71
2021/05/29 16:21:59;;;;;;;8.65;7.57;;;;;;;24.90;31.67;101495.94;8588964;33;20179;-71
2021/05/29 16:27:05;;;;;;;11.82;8.48;;;;;;;24.91;31.89;101497.63;8601686;33;20416;-71
2021/05/29 16:32:07;;;;;;;10.13;7.90;;;;;;;25.72;30.44;101489.22;8567677;33;20143;-71
2021/05/29 16:37:10;;;;;;;9.85;8.20;;;;;;;28.76;26.65;101495.00;8547274;33;20465;-71
2021/05/29 16:42:15;;;;;;;9.88;7.38;;;;;;;26.82;28.56;101493.16;8548002;33;20633;-71
2021/05/29 16:47:17;;;;;;;9.45;8.18;;;;;;;25.05;30.30;101495.06;8546691;33;20667;-71
2021/05/29 16:52:20;;;;;;;9.60;8.10;;;;;;;24.70;31.74;101489.31;8546732;33;20500;-71
2021/05/29 16:57:24;;;;;;;12.13;8.50;;;;;;;24.36;32.41;101482.50;8546541;33;20413;-72
2021/05/29 17:02:26;;;;;;;11.32;8.05;;;;;;;28.13;27.53;101476.22;8547378;33;20206;-72
2021/05/29 17:07:30;;;;;;;12.52;7.63;;;;;;;30.69;25.00;101475.00;8547291;33;20886;-72
2021/05/29 17:12:34;;;;;;;9.07;7.97;;;;;;;29.94;24.80;101475.09;8548308;33;20156;-72
2021/05/29 17:17:36;;;;;;;11.25;8.38;;;;;;;29.57;25.18;101474.97;8562949;33;20282;-72
2021/05/29 17:22:39;;;;;;;8.60;6.82;;;;;;;30.50;24.62;101464.97;8604454;33;20445;-73
2021/05/29 17:27:43;;;;;;;8.63;7.22;;;;;;;25.95;28.61;101478.00;8602193;33;21012;-71
2021/05/29 17:32:46;;;;;;;8.52;7.72;;;;;;;23.35;32.73;101479.09;8605056;33;21135;-71
2021/05/29 17:37:49;;;;;;;8.30;6.65;;;;;;;20.24;37.69;101481.88;8603552;33;20469;-71
2021/05/29 17:42:53;;;;;;;9.15;7.47;;;;;;;18.66;41.66;101486.13;8603238;33;21105;-74
2021/05/29 17:47:55;;;;;;;8.77;7.22;;;;;;;19.30;41.17;101482.47;8577811;33;20230;-71
2021/05/29 17:52:58;;;;;;;10.85;8.57;;;;;;;18.56;41.68;101492.47;8577344;33;20416;-72
2021/05/29 17:58:13;;;;;;;10.82;8.40;;;;;;;17.62;44.79;101486.09;8601409;33;20468;-71
2021/05/29 18:03:16;;;;;;;8.10;7.30;;;;;;;17.24;46.06;101487.81;8589079;33;20935;-71
2021/05/29 18:08:19;;;;;;;8.27;7.20;;;;;;;17.35;45.63;101482.22;8601903;33;21785;-71
2021/05/29 18:13:22;;;;;;;9.57;7.80;;;;;;;17.18;46.68;101491.94;8603118;33;20269;-71
2021/05/29 18:18:25;;;;;;;10.80;7.10;;;;;;;16.84;46.19;101482.41;8602874;33;20505;-71
2021/05/29 18:23:28;;;;;;;8.35;5.32;;;;;;;16.31;47.48;101491.63;8602563;33;20439;-72
2021/05/29 18:28:31;;;;;;;9.55;6.00;;;;;;;15.94;48.02;101489.41;8601035;33;20214;-71
2021/05/29 18:33:38;;;;;;;10.27;6.65;;;;;;;15.73;48.66;101483.97;8596668;33;20967;-73
2021/05/29 18:44:04;;;;;;;8.02;5.50;;;;;;;15.37;49.74;101482.53;8599299;33;20419;-71
2021/05/29 18:49:10;;;;;;;7.70;5.50;;;;;;;15.11;51.57;101490.97;8599056;33;20226;-72
2021/05/29 18:54:12;;;;;;;5.57;4.78;;;;;;;14.92;52.30;101494.31;8576316;32;20756;-71
2021/05/29 18:59:22;;;;;;;7.53;5.43;;;;;;;14.67;53.02;101494.59;8589987;33;20955;-71
2021/05/29 19:04:27;;;;;;;8.35;5.93;;;;;;;14.45;52.98;101500.84;8603294;33;20185;-72
2021/05/29 19:09:30;;;;;;;9.27;7.05;;;;;;;14.33;53.42;101516.19;8598336;33;20513;-71
2021/05/29 19:14:35;;;;;;;12.90;6.97;;;;;;;14.20;53.83;101520.84;8613856;33;20178;-71
2021/05/29 19:19:37;;;;;;;11.13;7.07;;;;;;;14.05;53.91;101525.63;8581384;33;20146;-72
2021/05/29 19:24:50;;;;;;;8.80;6.45;;;;;;;13.93;54.45;101532.81;8603050;33;20465;-71
2021/05/29 19:29:53;;;;;;;8.75;6.85;;;;;;;13.75;55.96;101527.00;8589033;33;20164;-71
2021/05/29 19:40:28;;;;;;;9.80;7.70;;;;;;;13.35;57.35;101535.34;8603223;33;20881;-71
2021/05/29 19:45:49;;;;;;;10.38;8.85;;;;;;;13.17;57.87;101529.50;8603163;33;20182;-71
2021/05/29 20:12:40;;;;;;;16.02;11.90;;;;;;;12.65;59.48;101562.09;8602920;33;20174;-71
2021/05/29 20:23:04;;;;;;;16.50;12.50;;;;;;;12.42;60.75;101548.41;8628282;32;20494;-72
2021/05/29 20:28:07;;;;;;;16.17;11.13;;;;;;;12.35;60.79;101552.53;8662167;32;20914;-72
2021/05/29 20:33:12;;;;;;;14.50;10.85;;;;;;;12.16;61.36;101559.16;8603799;32;20460;-72
2021/05/29 20:38:14;;;;;;;14.40;10.77;;;;;;;12.07;61.51;101564.31;8542624;33;20148;-72
2021/05/29 20:43:19;;;;;;;14.25;9.77;;;;;;;11.94;61.97;101561.59;8561148;33;20412;-72
2021/05/29 20:48:22;;;;;;;14.40;10.18;;;;;;;11.88;62.05;101565.56;8589745;33;20274;-72
2021/05/29 20:53:27;;;;;;;16.67;9.82;;;;;;;11.70;62.47;101575.72;8604859;33;20858;-71
2021/05/29 20:58:31;;;;;;;12.60;9.55;;;;;;;11.61;62.96;101570.97;8605272;33;20481;-72
2021/05/29 21:03:35;;;;;;;13.68;10.38;;;;;;;11.56;63.12;101569.56;8608102;33;20466;-72
2021/05/29 21:08:38;;;;;;;18.42;11.23;;;;;;;11.59;63.49;101564.81;8613225;33;20454;-72
2021/05/29 21:13:43;;;;;;;16.83;11.90;;;;;;;11.50;63.30;101573.53;8606562;33;20245;-72
2021/05/29 21:24:08;;;;;;;18.52;12.57;;;;;;;11.26;63.79;101579.53;8612162;33;20230;-72
2021/05/29 21:29:13;;;;;;;18.85;11.80;;;;;;;11.17;64.27;101581.97;8617798;33;20587;-72
2021/05/29 21:34:16;;;;;;;15.85;11.05;;;;;;;11.08;64.51;101586.09;8623330;33;21382;-73
2021/05/29 21:39:19;;;;;;;16.00;11.00;;;;;;;11.01;64.89;101576.69;8593884;33;20139;-72
2021/05/29 21:44:30;;;;;;;15.73;10.38;;;;;;;10.91;64.81;101588.97;8618284;33;20638;-72
2021/05/29 21:49:34;;;;;;;13.82;9.88;;;;;;;10.77;65.57;101593.41;8615969;33;20434;-72
2021/05/29 21:54:36;;;;;;;14.13;10.23;;;;;;;10.78;65.30;101587.06;8619838;33;20575;-72
2021/05/29 21:59:44;;;;;;;14.45;9.85;;;;;;;10.65;65.45;101587.94;8624501;33;20860;-72
2021/05/29 22:04:48;;;;;;;14.57;10.25;;;;;;;10.39;66.26;101593.09;8624776;33;21185;-72
2021/05/29 22:09:53;;;;;;;15.98;10.80;;;;;;;10.26;66.94;101592.13;8625093;33;20926;-72
2021/05/29 22:20:21;;;;;;;19.30;10.98;;;;;;;10.23;66.79;101597.66;8620112;33;20298;-73
2021/05/29 22:30:45;;;;;;;16.23;11.13;;;;;;;10.08;66.68;101605.69;8615648;33;20155;-73
2021/05/29 22:35:53;;;;;;;16.73;10.02;;;;;;;10.02;66.59;101607.88;8633955;32;20892;-73
2021/05/29 22:40:55;;;;;;;17.55;11.85;;;;;;;9.86;66.78;101615.97;8679338;32;20170;-74
2021/05/29 22:45:58;;;;;;;16.65;11.60;;;;;;;9.80;67.04;101619.84;8679717;32;20938;-73
2021/05/29 22:51:02;;;;;;;17.23;11.43;;;;;;;9.75;67.32;101624.59;8676040;32;20523;-73
2021/05/29 22:56:04;;;;;;;18.55;11.70;;;;;;;9.79;67.56;101626.19;8672767;32;20186;-72
2021/05/29 23:01:07;;;;;;;19.05;11.88;;;;;;;9.70;67.75;101626.69;8685460;32;20389;-73
2021/05/29 23:06:11;;;;;;;17.13;11.90;;;;;;;9.64;67.82;101633.28;8661474;32;20393;-73
2021/05/29 23:11:13;;;;;;;15.98;10.95;;;;;;;9.55;67.71;101635.63;8661201;33;20611;-73
2021/05/29 23:16:16;;;;;;;16.13;10.90;;;;;;;9.45;67.96;101636.13;8660391;32;20494;-73
2021/05/29 23:21:20;;;;;;;16.93;11.03;;;;;;;9.26;68.11;101638.97;8663073;32;20406;-73
2021/05/29 23:26:23;;;;;;;16.63;10.70;;;;;;;9.13;68.37;101643.28;8674676;32;20148;-73
2021/05/29 23:31:25;;;;;;;21.33;12.63;;;;;;;9.04;68.75;101641.97;8674908;32;20151;-73
2021/05/29 23:36:29;;;;;;;16.15;11.18;;;;;;;8.95;68.81;101634.44;8674468;32;20994;-73
2021/05/29 23:41:32;;;;;;;18.05;12.25;;;;;;;8.89;69.48;101637.47;8668315;33;20195;-73
2021/05/29 23:46:34;;;;;;;20.23;12.80;;;;;;;8.84;69.60;101639.53;8661638;32;20173;-73
2021/05/29 23:51:38;;;;;;;19.02;12.70;;;;;;;8.85;70.12;101643.94;8579488;33;20251;-73
2021/05/29 23:56:42;;;;;;;20.10;12.50;;;;;;;8.46;71.48;101639.75;8615218;33;20449;-73
